Airfield :
LOGIN :

Register | Disclaimer

   EN    FR    IT 

 










Legend :    VFR   Marginal VFR   IFR   Intensive IFR   Very Intensive IFR
Visi :
Ceiling :
>= 8 km
>= 3000ft
5 to 8 km
1000 to 3000 ft
1500m to 5 km
500 to 1000 ft
800 to 1500m
200 to 500 ft
< 800m
< 200 ft
Symbols :   Thunderstorms  Fog  Heavy snow  Heavy precipitations  Wind > 20 kt
SIGMETs :     Misc.  Thunderstorms  Icing  Turbulence  Mountain Waves  Volcanic Ashes






- Airport Elevation : 34 ft
- IATA code : BLK


EGNH - Blackpool

CURRENT METAR :
  • 131620Z 32006KT 300V360 9999 SCT036 15/11 Q1013

EXPIRED METARs :
  • 131550Z 31006KT 280V340 9999 FEW036 SCT046 15/11 Q1013
  • 131520Z 33006KT 290V010 9999 FEW036 SCT046 15/10 Q1014
  • 131450Z 35007KT 320V030 9999 SCT036 BKN040 16/10 Q1013
  • 131420Z 33008KT 300V360 9999 SCT036 17/10 Q1013
  • 131350Z 33008KT 9999 FEW013 SCT030 17/10 Q1013
  • 131320Z 34006KT 300V020 9999 FEW026 SCT041 17/10 Q1014
  • 131250Z 34008KT 310V010 9999 FEW026 SCT041CB 17/10 Q1014
  • 131220Z 33007KT 300V010 9999 FEW026 SCT037 17/10 Q1014
  • 131150Z 34005KT 290V040 9999 SCT026 17/11 Q1014

TAF TAF EGNH
Valid from the 13 at 15:00 until the 13 at 20:00 UTC


131357Z 1315/1320 35006KT 9999 SCT035
PROB30
TEMPO 1315/1320 7000 SHRA
ATIS : +44 1253 343 434 (x8315)



MET'MAP, your aeronautical weather chart ! - Copyright ORBIFLY December 2007 - Disclaimer

ORBIFLY MET'MAP TEAM :

Programming & Development : Alexandra Zaïnal
Original concept : Baudouin d'Aumeries
Technical & hardware support : Manuel Goepfert
Assistance : Marc-Olivier Méhu




SOURCES & CREDITS :

   NOAA